createdAt,value
2017-08-30T00:00:09.542Z,20.20
2017-08-30T00:02:37.104Z,20.30
2017-08-30T00:05:04.630Z,20.10
2017-08-30T00:07:32.181Z,20.20
2017-08-30T00:09:59.709Z,20.00
2017-08-30T00:12:27.274Z,19.80
2017-08-30T00:14:54.837Z,19.80
2017-08-30T00:17:22.369Z,19.80
2017-08-30T00:19:49.930Z,19.80
2017-08-30T00:22:17.491Z,19.90
2017-08-30T00:24:56.772Z,19.90
2017-08-30T00:27:24.308Z,19.90
2017-08-30T00:29:51.869Z,19.90
2017-08-30T00:32:19.398Z,19.90
2017-08-30T00:34:46.923Z,19.80
2017-08-30T00:37:14.482Z,19.90
2017-08-30T00:39:42.020Z,19.80
2017-08-30T00:42:09.582Z,19.80
2017-08-30T00:44:37.178Z,19.70
2017-08-30T00:47:04.718Z,19.70
2017-08-30T00:49:32.246Z,19.60
2017-08-30T00:51:59.801Z,19.60
2017-08-30T00:54:27.327Z,19.60
2017-08-30T00:56:54.886Z,19.60
2017-08-30T00:59:22.422Z,19.60
2017-08-30T01:01:49.981Z,19.50
2017-08-30T01:04:17.518Z,19.40
2017-08-30T01:06:45.070Z,19.30
2017-08-30T01:09:12.646Z,19.30
2017-08-30T01:11:40.174Z,19.30
2017-08-30T01:14:07.697Z,19.30
2017-08-30T01:16:35.261Z,19.30
2017-08-30T01:19:02.810Z,19.30
2017-08-30T01:21:30.375Z,19.30
2017-08-30T01:23:57.938Z,19.20
2017-08-30T01:26:25.462Z,19.30
2017-08-30T01:28:53.025Z,19.20
2017-08-30T01:31:20.554Z,19.20
2017-08-30T01:33:48.111Z,19.10
2017-08-30T01:36:15.635Z,19.10
2017-08-30T01:38:43.209Z,19.10
2017-08-30T01:41:10.746Z,19.10
2017-08-30T01:43:38.325Z,19.00
2017-08-30T01:46:05.858Z,19.10
2017-08-30T01:48:33.390Z,19.00
2017-08-30T01:51:00.964Z,19.00
2017-08-30T01:53:28.502Z,18.90
2017-08-30T01:55:56.132Z,19.00
2017-08-30T01:58:23.662Z,19.00
2017-08-30T02:00:51.237Z,18.90
2017-08-30T02:03:18.763Z,18.80
2017-08-30T02:05:46.290Z,18.80
2017-08-30T02:08:13.855Z,18.80
2017-08-30T02:10:41.382Z,18.70
2017-08-30T02:13:08.943Z,18.80
2017-08-30T02:15:36.481Z,18.70
2017-08-30T02:18:04.059Z,18.60
2017-08-30T02:20:31.673Z,18.50
2017-08-30T02:22:59.231Z,18.50
2017-08-30T02:25:26.761Z,18.40
2017-08-30T02:27:54.334Z,18.30
2017-08-30T02:30:21.864Z,18.40
2017-08-30T02:32:49.402Z,18.40
2017-08-30T02:35:16.986Z,18.60
2017-08-30T02:37:45.314Z,18.60
2017-08-30T02:40:12.946Z,18.60
2017-08-30T02:42:40.507Z,18.70
2017-08-30T02:45:08.083Z,18.80
2017-08-30T02:47:35.651Z,19.00
2017-08-30T02:50:03.199Z,19.00
2017-08-30T02:52:30.754Z,19.10
2017-08-30T02:54:58.286Z,19.10
2017-08-30T02:57:25.855Z,19.20
2017-08-30T02:59:53.382Z,19.30
2017-08-30T03:02:20.978Z,19.20
2017-08-30T03:04:48.510Z,19.30
2017-08-30T03:07:16.036Z,19.30
2017-08-30T03:09:43.598Z,19.40
2017-08-30T03:12:11.135Z,19.50
2017-08-30T03:14:38.715Z,19.40
2017-08-30T03:17:06.240Z,19.40
2017-08-30T03:19:33.781Z,19.40
2017-08-30T03:22:01.362Z,19.60
2017-08-30T03:24:28.927Z,19.60
2017-08-30T03:26:56.513Z,19.70
2017-08-30T03:29:24.050Z,19.60
2017-08-30T03:31:52.398Z,19.70
2017-08-30T03:34:19.963Z,19.70
2017-08-30T03:36:47.503Z,19.90
2017-08-30T03:39:15.070Z,19.90
2017-08-30T03:41:42.616Z,19.80
2017-08-30T03:44:10.221Z,19.70
2017-08-30T03:46:37.760Z,19.90
2017-08-30T03:49:05.294Z,19.90
2017-08-30T03:51:32.873Z,20.00
2017-08-30T03:54:00.401Z,20.10
2017-08-30T03:56:27.980Z,20.10
2017-08-30T03:58:55.510Z,20.30
2017-08-30T04:01:23.082Z,20.40
2017-08-30T04:03:50.662Z,20.40
2017-08-30T04:06:18.186Z,20.40
2017-08-30T04:08:45.719Z,20.30
2017-08-30T04:11:13.300Z,20.20
2017-08-30T04:13:40.830Z,20.20
2017-08-30T04:16:08.357Z,20.20
2017-08-30T04:18:35.917Z,20.30
2017-08-30T04:21:03.454Z,20.20
2017-08-30T04:23:31.338Z,20.30
2017-08-30T04:25:58.872Z,20.40
2017-08-30T04:28:26.403Z,20.30
2017-08-30T04:30:53.973Z,20.40
2017-08-30T04:33:21.997Z,20.40
2017-08-30T04:35:49.522Z,20.40
2017-08-30T04:38:17.089Z,20.40
2017-08-30T04:40:44.618Z,20.50
2017-08-30T04:43:12.152Z,20.40
2017-08-30T04:45:39.705Z,20.40
2017-08-30T04:48:07.234Z,20.50
2017-08-30T04:50:34.800Z,20.70
2017-08-30T04:53:02.330Z,20.80
2017-08-30T04:55:29.870Z,20.80
2017-08-30T04:57:57.437Z,20.80
2017-08-30T05:00:24.969Z,20.80
2017-08-30T05:02:52.527Z,20.80
2017-08-30T05:07:54.019Z,20.80
2017-08-30T05:10:21.563Z,21.00
2017-08-30T05:12:49.120Z,21.00
2017-08-30T05:15:16.649Z,21.10
2017-08-30T05:17:44.226Z,21.40
2017-08-30T05:20:11.773Z,21.70
2017-08-30T05:22:39.298Z,21.80
2017-08-30T05:25:06.857Z,22.00
2017-08-30T05:27:34.377Z,22.40
2017-08-30T05:30:01.935Z,22.60
2017-08-30T05:32:29.461Z,22.70
2017-08-30T05:34:57.009Z,22.90
2017-08-30T05:37:24.546Z,23.00
2017-08-30T05:39:52.115Z,23.30
2017-08-30T05:42:19.639Z,23.50
2017-08-30T05:44:47.590Z,23.70
2017-08-30T05:47:15.125Z,23.80
2017-08-30T05:49:42.690Z,23.70
2017-08-30T05:52:10.257Z,23.50
2017-08-30T05:54:37.790Z,23.50
2017-08-30T05:57:05.355Z,23.40
2017-08-30T05:59:32.877Z,23.30
2017-08-30T06:02:00.499Z,23.30
2017-08-30T06:04:28.023Z,23.30
2017-08-30T06:06:55.561Z,23.20
2017-08-30T06:09:23.126Z,23.10
2017-08-30T06:11:50.674Z,23.10
2017-08-30T06:14:18.334Z,22.90
2017-08-30T06:16:45.872Z,23.00
2017-08-30T06:19:14.052Z,22.90
2017-08-30T06:21:41.638Z,22.80
2017-08-30T06:24:09.182Z,22.70
2017-08-30T06:26:36.717Z,22.60
2017-08-30T06:29:04.282Z,22.50
2017-08-30T06:31:31.809Z,22.50
2017-08-30T06:33:59.355Z,22.60
2017-08-30T06:36:27.054Z,22.50
2017-08-30T06:38:54.622Z,22.50
2017-08-30T06:41:22.182Z,22.60
2017-08-30T06:43:49.754Z,22.50
2017-08-30T06:46:17.315Z,22.60
2017-08-30T06:48:44.849Z,22.60
2017-08-30T06:51:12.430Z,22.60
2017-08-30T06:53:39.962Z,22.30
2017-08-30T06:56:07.493Z,22.10
2017-08-30T06:58:35.051Z,21.90
2017-08-30T07:01:02.610Z,21.60
2017-08-30T07:03:30.189Z,21.20
2017-08-30T07:05:57.732Z,20.80
2017-08-30T07:08:25.313Z,20.60
2017-08-30T07:10:52.867Z,20.50
2017-08-30T07:13:20.393Z,20.40
2017-08-30T07:15:47.966Z,20.50
2017-08-30T07:18:16.324Z,20.50
2017-08-30T07:20:43.855Z,20.50
2017-08-30T07:23:11.413Z,20.50
2017-08-30T07:25:38.947Z,20.50
2017-08-30T07:28:06.510Z,20.50
2017-08-30T07:30:34.070Z,20.40
2017-08-30T07:33:01.638Z,20.40
2017-08-30T07:35:29.930Z,20.50
2017-08-30T07:37:57.466Z,20.40
2017-08-30T07:40:25.025Z,20.50
2017-08-30T07:42:53.444Z,20.50
2017-08-30T07:45:21.005Z,20.60
2017-08-30T07:47:48.530Z,20.70
2017-08-30T07:50:16.112Z,20.70
2017-08-30T07:52:43.691Z,20.70
2017-08-30T07:55:11.250Z,20.60
2017-08-30T07:57:38.841Z,20.60
2017-08-30T08:00:06.404Z,20.50
2017-08-30T08:02:33.927Z,20.60
2017-08-30T08:05:01.517Z,20.70
2017-08-30T08:07:29.049Z,20.90
2017-08-30T08:09:56.588Z,21.00
2017-08-30T08:12:24.158Z,21.00
2017-08-30T08:14:51.719Z,21.00
2017-08-30T08:17:19.293Z,21.10
2017-08-30T08:19:46.827Z,21.10
2017-08-30T08:22:14.379Z,21.30
2017-08-30T08:24:41.947Z,21.50
2017-08-30T08:27:09.480Z,21.40
2017-08-30T08:29:37.054Z,21.50
2017-08-30T08:32:04.624Z,21.50
2017-08-30T08:34:32.185Z,21.60
2017-08-30T08:36:59.723Z,21.60
2017-08-30T08:39:27.281Z,21.80
2017-08-30T08:41:55.578Z,21.70
2017-08-30T08:44:23.161Z,21.60
2017-08-30T08:46:50.698Z,21.80
2017-08-30T08:49:18.225Z,22.00
2017-08-30T08:51:45.802Z,22.00
2017-08-30T08:54:13.327Z,22.00
2017-08-30T08:56:40.850Z,22.10
2017-08-30T08:59:08.634Z,22.30
2017-08-30T09:01:36.193Z,22.50
2017-08-30T09:04:03.734Z,22.60
2017-08-30T09:06:31.290Z,22.60
2017-08-30T09:08:58.869Z,22.50
2017-08-30T09:11:26.400Z,22.30
2017-08-30T09:13:53.983Z,22.30
2017-08-30T09:16:21.505Z,22.50
2017-08-30T09:18:49.030Z,22.60
2017-08-30T09:21:16.590Z,22.70
2017-08-30T09:23:44.166Z,22.90
2017-08-30T09:26:11.725Z,22.80
2017-08-30T09:28:39.249Z,22.90
2017-08-30T09:31:06.823Z,22.90
2017-08-30T09:33:35.113Z,23.00
2017-08-30T09:36:02.632Z,23.00
2017-08-30T09:38:30.222Z,22.90
2017-08-30T09:40:57.765Z,23.00
2017-08-30T09:43:25.289Z,23.10
2017-08-30T09:45:52.851Z,23.10
2017-08-30T09:48:20.427Z,23.20
2017-08-30T09:50:47.959Z,23.30
2017-08-30T09:53:15.493Z,23.40
2017-08-30T09:55:43.050Z,23.40
2017-08-30T09:58:10.571Z,23.40
2017-08-30T10:00:38.130Z,23.50
2017-08-30T10:03:05.671Z,23.70
2017-08-30T10:05:33.229Z,23.60
2017-08-30T10:08:00.761Z,23.60
2017-08-30T10:10:28.346Z,23.60
2017-08-30T10:12:55.873Z,23.80
2017-08-30T10:15:23.398Z,24.00
2017-08-30T10:17:50.955Z,24.10
2017-08-30T10:20:18.482Z,24.20
2017-08-30T10:22:46.055Z,24.10
2017-08-30T10:25:13.600Z,24.10
2017-08-30T10:27:41.140Z,24.10
2017-08-30T10:30:08.705Z,24.20
2017-08-30T10:32:36.241Z,24.40
2017-08-30T10:35:03.798Z,24.70
2017-08-30T10:37:31.376Z,24.70
2017-08-30T10:39:58.905Z,24.70
2017-08-30T10:42:26.434Z,24.70
2017-08-30T10:44:53.994Z,24.80
2017-08-30T10:47:21.843Z,24.70
2017-08-30T10:49:49.415Z,24.90
2017-08-30T10:52:16.934Z,25.00
2017-08-30T10:54:44.462Z,25.20
2017-08-30T10:57:12.022Z,25.40
2017-08-30T10:59:39.558Z,25.60
2017-08-30T11:02:07.114Z,25.70
2017-08-30T11:04:34.640Z,25.70
2017-08-30T11:07:02.209Z,25.80
2017-08-30T11:09:29.739Z,25.60
2017-08-30T11:11:57.317Z,25.60
2017-08-30T11:14:24.860Z,25.50
2017-08-30T11:16:52.393Z,25.50
2017-08-30T11:19:19.974Z,25.30
2017-08-30T11:21:47.506Z,25.20
2017-08-30T11:24:15.085Z,25.30
2017-08-30T11:26:42.646Z,25.20
2017-08-30T11:29:10.175Z,25.10
2017-08-30T11:31:37.734Z,25.20
2017-08-30T11:34:05.262Z,25.20
2017-08-30T11:36:32.822Z,25.10
2017-08-30T11:39:00.358Z,25.10
2017-08-30T11:41:27.929Z,25.10
2017-08-30T11:43:55.494Z,25.10
2017-08-30T11:46:23.029Z,25.20
2017-08-30T11:48:50.553Z,25.40
2017-08-30T11:51:18.126Z,25.60
2017-08-30T11:53:45.665Z,25.70
2017-08-30T11:56:13.197Z,25.90
2017-08-30T11:58:40.762Z,26.10
2017-08-30T12:01:08.334Z,26.00
2017-08-30T12:03:35.862Z,26.10
2017-08-30T12:06:03.421Z,26.00
2017-08-30T12:08:30.953Z,26.10
2017-08-30T12:10:58.555Z,26.00
2017-08-30T12:13:26.094Z,26.00
2017-08-30T12:15:53.723Z,26.10
2017-08-30T12:18:21.306Z,26.00
2017-08-30T12:20:48.850Z,26.00
2017-08-30T12:23:16.382Z,26.20
2017-08-30T12:25:43.955Z,26.00
2017-08-30T12:28:11.504Z,26.10
2017-08-30T12:30:39.096Z,26.10
2017-08-30T12:33:06.634Z,26.20
2017-08-30T12:35:34.175Z,26.20
2017-08-30T12:38:07.520Z,26.20
2017-08-30T12:40:35.049Z,26.10
2017-08-30T12:43:02.605Z,26.20
2017-08-30T12:45:30.170Z,26.10
2017-08-30T12:47:57.731Z,26.00
2017-08-30T12:50:25.294Z,26.00
2017-08-30T12:52:52.855Z,25.90
2017-08-30T12:55:20.427Z,25.80
2017-08-30T12:57:47.989Z,25.90
2017-08-30T13:00:15.674Z,25.90
2017-08-30T13:02:43.251Z,25.80
2017-08-30T13:05:10.790Z,25.70
2017-08-30T13:07:38.370Z,25.60
2017-08-30T13:10:05.898Z,25.60
2017-08-30T13:12:33.426Z,25.70
2017-08-30T13:15:00.985Z,25.80
2017-08-30T13:17:28.555Z,25.70
2017-08-30T13:19:56.083Z,25.70
2017-08-30T13:22:23.650Z,25.80
2017-08-30T13:24:51.828Z,25.90
2017-08-30T13:27:19.390Z,26.00
2017-08-30T13:29:46.947Z,26.10
2017-08-30T13:32:14.526Z,26.20
2017-08-30T13:34:42.066Z,26.20
2017-08-30T13:37:09.626Z,26.30
2017-08-30T13:39:37.153Z,26.40
2017-08-30T13:42:04.718Z,26.30
2017-08-30T13:44:32.463Z,26.30
2017-08-30T13:47:00.035Z,26.30
2017-08-30T13:49:27.575Z,26.30
2017-08-30T13:51:55.105Z,26.30
2017-08-30T13:54:22.750Z,26.20
2017-08-30T13:56:50.319Z,26.30
2017-08-30T13:59:17.842Z,26.20
2017-08-30T14:01:45.374Z,25.90
2017-08-30T14:04:12.937Z,26.00
2017-08-30T14:06:40.506Z,26.00
2017-08-30T14:09:08.047Z,26.00
2017-08-30T14:11:35.626Z,26.00
2017-08-30T14:14:03.154Z,26.00
2017-08-30T14:16:30.692Z,26.00
2017-08-30T14:18:58.265Z,25.90
2017-08-30T14:21:25.797Z,25.90
2017-08-30T14:23:53.330Z,25.90
2017-08-30T14:26:20.889Z,25.90
2017-08-30T14:28:48.414Z,25.90
2017-08-30T14:31:15.990Z,25.90
2017-08-30T14:33:43.517Z,25.80
2017-08-30T14:36:11.046Z,25.80
2017-08-30T14:38:38.602Z,25.90
2017-08-30T14:41:06.893Z,25.80
2017-08-30T14:43:34.490Z,25.80
2017-08-30T14:46:02.785Z,25.60
2017-08-30T14:48:30.310Z,25.60
2017-08-30T14:50:57.894Z,25.70
2017-08-30T14:53:25.808Z,25.70
2017-08-30T14:55:53.394Z,25.70
2017-08-30T14:58:20.976Z,25.60
2017-08-30T15:00:48.501Z,25.60
2017-08-30T15:03:16.030Z,25.60
2017-08-30T15:05:43.586Z,25.60
2017-08-30T15:08:11.186Z,25.60
2017-08-30T15:10:38.714Z,25.50
2017-08-30T15:13:06.238Z,25.50
2017-08-30T15:15:33.810Z,25.40
2017-08-30T15:18:01.366Z,25.50
2017-08-30T15:20:28.942Z,25.50
2017-08-30T15:22:56.475Z,25.50
2017-08-30T15:25:24.003Z,25.60
2017-08-30T15:27:51.558Z,25.50
2017-08-30T15:30:19.116Z,25.70
2017-08-30T15:32:46.682Z,25.70
2017-08-30T15:35:14.212Z,25.70
2017-08-30T15:37:41.737Z,25.70
2017-08-30T15:40:09.314Z,25.90
2017-08-30T15:42:36.855Z,26.00
2017-08-30T15:45:04.411Z,26.00
2017-08-30T15:47:31.996Z,26.00
2017-08-30T15:49:59.527Z,26.20
2017-08-30T15:52:27.090Z,26.10
2017-08-30T15:54:54.662Z,26.10
2017-08-30T15:57:22.190Z,26.10
2017-08-30T15:59:49.765Z,26.20
2017-08-30T16:02:17.298Z,26.30
2017-08-30T16:04:44.825Z,26.30
2017-08-30T16:07:12.403Z,26.20
2017-08-30T16:09:39.928Z,26.00
2017-08-30T16:12:07.530Z,26.00
2017-08-30T16:14:35.066Z,26.00
2017-08-30T16:17:02.598Z,25.90
2017-08-30T16:19:30.167Z,26.00
2017-08-30T16:21:57.726Z,25.90
2017-08-30T16:24:25.302Z,25.60
2017-08-30T16:26:52.866Z,25.60
2017-08-30T16:29:20.403Z,25.50
2017-08-30T16:31:47.966Z,25.40
2017-08-30T16:34:15.534Z,25.40
2017-08-30T16:36:43.066Z,25.30
2017-08-30T16:39:11.398Z,25.30
2017-08-30T16:41:38.958Z,25.30
2017-08-30T16:44:06.486Z,25.30
2017-08-30T16:46:34.087Z,25.30
2017-08-30T16:49:01.624Z,25.30
2017-08-30T16:51:29.154Z,25.30
2017-08-30T16:53:56.730Z,25.30
2017-08-30T16:56:24.255Z,25.20
2017-08-30T16:58:51.783Z,25.30
2017-08-30T17:01:19.342Z,25.20
2017-08-30T17:03:46.872Z,25.10
2017-08-30T17:06:14.450Z,25.10
2017-08-30T17:08:41.985Z,25.00
2017-08-30T17:11:09.521Z,25.00
2017-08-30T17:13:37.083Z,24.90
2017-08-30T17:16:04.647Z,24.90
2017-08-30T17:18:32.407Z,24.90
2017-08-30T17:20:59.946Z,24.70
2017-08-30T17:23:27.481Z,24.70
2017-08-30T17:25:55.058Z,24.70
2017-08-30T17:28:22.582Z,24.70
2017-08-30T17:30:50.171Z,24.70
2017-08-30T17:33:17.706Z,24.60
2017-08-30T17:35:45.274Z,24.50
2017-08-30T17:38:12.867Z,24.50
2017-08-30T17:40:40.436Z,24.50
2017-08-30T17:43:08.006Z,24.50
2017-08-30T17:45:35.552Z,24.40
2017-08-30T17:48:03.141Z,24.30
2017-08-30T17:50:30.701Z,24.30
2017-08-30T17:52:58.245Z,24.40
2017-08-30T17:55:25.811Z,24.30
2017-08-30T17:57:53.343Z,24.20
2017-08-30T18:00:20.924Z,24.20
2017-08-30T18:02:48.470Z,24.20
2017-08-30T18:05:16.019Z,24.20
2017-08-30T18:07:43.598Z,24.20
2017-08-30T18:10:11.125Z,24.10
2017-08-30T18:12:38.686Z,24.10
2017-08-30T18:15:06.242Z,24.10
2017-08-30T18:17:33.917Z,24.00
2017-08-30T18:20:01.446Z,24.10
2017-08-30T18:22:29.048Z,24.00
2017-08-30T18:24:56.606Z,24.00
2017-08-30T18:27:24.136Z,23.90
2017-08-30T18:29:51.781Z,23.90
2017-08-30T18:32:19.395Z,23.90
2017-08-30T18:34:46.929Z,23.90
2017-08-30T18:37:14.488Z,23.90
2017-08-30T18:39:42.934Z,23.90
2017-08-30T18:42:10.509Z,23.80
2017-08-30T18:44:38.055Z,23.60
2017-08-30T18:47:05.612Z,23.10
2017-08-30T18:49:33.222Z,22.80
2017-08-30T18:52:00.814Z,22.40
2017-08-30T18:54:28.389Z,22.20
2017-08-30T18:56:55.935Z,22.00
2017-08-30T18:59:23.487Z,21.80
2017-08-30T19:01:51.019Z,21.70
2017-08-30T19:04:18.582Z,21.60
2017-08-30T19:06:46.107Z,21.50
2017-08-30T19:09:13.672Z,21.40
2017-08-30T19:11:41.203Z,21.30
2017-08-30T19:14:08.802Z,21.10
2017-08-30T19:16:36.322Z,21.10
2017-08-30T19:19:03.890Z,20.90
2017-08-30T19:21:31.413Z,21.00
2017-08-30T19:23:59.014Z,20.80
2017-08-30T19:26:26.545Z,20.70
2017-08-30T19:28:54.077Z,20.70
2017-08-30T19:31:21.643Z,20.60
2017-08-30T19:33:49.177Z,20.70
2017-08-30T19:36:16.750Z,20.70
2017-08-30T19:38:44.290Z,20.70
2017-08-30T19:41:11.838Z,20.70
2017-08-30T19:43:39.396Z,20.60
2017-08-30T19:46:06.966Z,20.60
2017-08-30T19:48:34.494Z,20.60
2017-08-30T19:51:02.027Z,20.60
2017-08-30T19:53:29.705Z,20.50
2017-08-30T19:55:57.230Z,20.40
2017-08-30T19:58:24.758Z,20.40
2017-08-30T20:00:52.318Z,20.40
2017-08-30T20:03:19.847Z,20.30
2017-08-30T20:05:47.414Z,20.40
2017-08-30T20:08:14.937Z,20.30
2017-08-30T20:10:42.501Z,20.20
2017-08-30T20:13:10.025Z,20.20
2017-08-30T20:15:37.588Z,20.20
2017-08-30T20:18:05.118Z,20.30
2017-08-30T20:20:32.686Z,20.20
2017-08-30T20:23:00.213Z,20.20
2017-08-30T20:25:27.781Z,20.20
2017-08-30T20:27:55.314Z,20.20
2017-08-30T20:30:22.856Z,20.20
2017-08-30T20:32:50.419Z,20.20
2017-08-30T20:35:17.947Z,20.10
2017-08-30T20:37:45.506Z,20.10
2017-08-30T20:40:13.040Z,20.20
2017-08-30T20:42:40.594Z,20.10
2017-08-30T20:45:08.118Z,20.10
2017-08-30T20:47:35.684Z,20.10
2017-08-30T20:50:03.242Z,20.10
2017-08-30T20:52:30.775Z,20.10
2017-08-30T20:54:58.335Z,20.10
2017-08-30T20:57:25.883Z,20.00
2017-08-30T20:59:53.441Z,20.00
2017-08-30T21:02:20.967Z,19.90
2017-08-30T21:04:48.536Z,19.90
2017-08-30T21:07:16.113Z,19.90
2017-08-30T21:09:43.661Z,19.90
2017-08-30T21:12:11.264Z,20.00
2017-08-30T21:14:38.807Z,20.00
2017-08-30T21:17:06.338Z,19.90
2017-08-30T21:19:33.902Z,19.90
2017-08-30T21:22:01.453Z,19.80
2017-08-30T21:24:28.983Z,19.80
2017-08-30T21:26:56.552Z,19.80
2017-08-30T21:29:24.074Z,19.90
2017-08-30T21:31:51.603Z,19.90
2017-08-30T21:34:19.931Z,20.00
2017-08-30T21:36:47.453Z,20.00
2017-08-30T21:39:15.026Z,19.90
2017-08-30T21:41:42.554Z,19.90
2017-08-30T21:44:10.078Z,19.90
2017-08-30T21:46:37.634Z,19.90
2017-08-30T21:49:05.198Z,19.90
2017-08-30T21:51:32.774Z,19.80
2017-08-30T21:54:00.301Z,19.90
2017-08-30T21:56:27.826Z,19.80
2017-08-30T21:58:55.394Z,19.80
2017-08-30T22:01:22.946Z,19.90
2017-08-30T22:03:51.281Z,19.80
2017-08-30T22:06:18.805Z,19.80
2017-08-30T22:08:46.334Z,19.70
2017-08-30T22:11:13.894Z,19.70
2017-08-30T22:13:41.417Z,19.70
2017-08-30T22:16:09.109Z,19.70
2017-08-30T22:18:36.636Z,19.60
2017-08-30T22:21:04.166Z,19.60
2017-08-30T22:23:31.728Z,19.60
2017-08-30T22:25:59.257Z,19.60
2017-08-30T22:28:26.834Z,19.70
2017-08-30T22:30:54.365Z,19.60
2017-08-30T22:33:21.922Z,19.60
2017-08-30T22:35:49.462Z,19.60
2017-08-30T22:38:17.035Z,19.60
2017-08-30T22:40:44.574Z,19.60
2017-08-30T22:43:12.099Z,19.60
2017-08-30T22:45:39.661Z,19.50
2017-08-30T22:48:07.187Z,19.40
2017-08-30T22:50:34.750Z,19.30
2017-08-30T22:53:02.280Z,19.20
2017-08-30T22:55:29.810Z,19.10
2017-08-30T22:57:57.375Z,19.10
2017-08-30T23:00:25.673Z,19.00
2017-08-30T23:02:53.226Z,18.90
2017-08-30T23:05:20.763Z,18.90
2017-08-30T23:07:48.320Z,18.90
2017-08-30T23:10:15.851Z,18.90
2017-08-30T23:12:43.454Z,18.80
2017-08-30T23:15:11.020Z,18.70
2017-08-30T23:17:38.562Z,18.70
2017-08-30T23:20:06.138Z,18.80
2017-08-30T23:22:33.675Z,18.80
2017-08-30T23:25:01.239Z,18.80
2017-08-30T23:27:28.812Z,18.60
2017-08-30T23:29:56.346Z,18.60
2017-08-30T23:32:23.874Z,18.60
2017-08-30T23:34:51.450Z,18.60
2017-08-30T23:37:18.988Z,18.50
2017-08-30T23:39:46.542Z,18.50
2017-08-30T23:42:14.110Z,18.50
2017-08-30T23:44:41.642Z,18.40
2017-08-30T23:47:09.238Z,18.10
2017-08-30T23:49:36.767Z,17.90
2017-08-30T23:52:04.372Z,17.60
2017-08-30T23:54:32.673Z,17.60
2017-08-30T23:57:00.208Z,17.60
2017-08-30T23:59:27.775Z,17.60
